Time;durP1;ratioP1;P1;durP2;ratioP2;P2;SDS_P1;SDS_P2;PMS_P1;PMS_P2;Temp;Humidity;BMP_temperature;BMP_pressure;BME280_temperature;BME280_humidity;BME280_pressure;Samples;Min_cycle;Max_cycle;Signal;HPM_P1;HPM_P2
2023/04/14 00:01:54;;;;;;;10.75;2.78;;;5.60;99.90;;;;;;5036093;28;20041;-85
2023/04/14 00:04:19;;;;;;;13.32;2.75;;;5.50;99.90;;;;;;5053614;28;20131;-85
2023/04/14 00:06:45;;;;;;;10.00;2.80;;;5.50;99.90;;;;;;5053747;28;20102;-85
2023/04/14 00:09:11;;;;;;;14.25;2.60;;;5.40;99.90;;;;;;5035519;28;20051;-85
2023/04/14 00:11:36;;;;;;;12.15;2.63;;;5.40;99.90;;;;;;5053389;28;20499;-85
2023/04/14 00:14:02;;;;;;;11.02;2.55;;;5.40;99.90;;;;;;5053525;28;20394;-85
2023/04/14 00:16:29;;;;;;;9.90;2.83;;;5.40;99.90;;;;;;5035786;28;20056;-85
2023/04/14 00:18:55;;;;;;;12.50;3.63;;;5.30;99.90;;;;;;5053414;28;20048;-85
2023/04/14 00:21:21;;;;;;;9.65;2.40;;;5.30;99.90;;;;;;5053503;28;20041;-85
2023/04/14 00:23:46;;;;;;;9.27;2.88;;;5.30;99.90;;;;;;5053390;28;20500;-85
2023/04/14 00:26:12;;;;;;;12.23;3.08;;;5.30;99.90;;;;;;5053922;28;20084;-85
2023/04/14 00:28:37;;;;;;;8.13;2.60;;;5.20;99.90;;;;;;5035765;28;20044;-85
2023/04/14 00:31:03;;;;;;;8.88;2.58;;;5.20;99.90;;;;;;5053116;28;20110;-85
2023/04/14 00:33:29;;;;;;;13.05;2.60;;;5.20;99.90;;;;;;5053325;28;20091;-85
2023/04/14 00:35:55;;;;;;;9.40;3.22;;;5.20;99.90;;;;;;5035433;28;20120;-86
2023/04/14 00:38:21;;;;;;;8.13;2.30;;;5.20;99.90;;;;;;5053041;28;20033;-86
2023/04/14 00:40:47;;;;;;;9.57;2.47;;;5.20;99.90;;;;;;5053746;28;20045;-86
2023/04/14 00:43:18;;;;;;;15.80;3.65;;;5.20;99.90;;;;;;5035499;28;20064;-86
2023/04/14 00:45:46;;;;;;;9.45;2.50;;;5.20;99.90;;;;;;5035602;28;20049;-86
2023/04/14 00:48:13;;;;;;;11.15;2.58;;;5.10;99.90;;;;;;5053217;28;20120;-86
2023/04/14 00:50:38;;;;;;;7.38;2.80;;;5.10;99.90;;;;;;5053224;28;20128;-86
2023/04/14 00:53:04;;;;;;;9.52;2.45;;;5.10;99.90;;;;;;5034965;28;20463;-85
2023/04/14 00:55:32;;;;;;;9.45;2.90;;;5.00;99.90;;;;;;5053118;28;20051;-86
2023/04/14 00:57:59;;;;;;;12.02;2.22;;;5.10;99.90;;;;;;5053150;28;20124;-86
2023/04/14 01:00:25;;;;;;;9.02;2.38;;;5.10;99.90;;;;;;5035249;28;20045;-86
2023/04/14 01:02:50;;;;;;;10.00;3.25;;;5.10;99.90;;;;;;5053081;28;20041;-86
2023/04/14 01:05:16;;;;;;;10.15;2.83;;;5.10;99.90;;;;;;5035235;28;20128;-86
2023/04/14 01:07:42;;;;;;;11.30;2.72;;;5.10;99.90;;;;;;5035054;28;20041;-86
2023/04/14 01:10:09;;;;;;;11.18;2.92;;;5.10;99.90;;;;;;5053028;28;20128;-86
2023/04/14 01:13:05;;;;;;;10.25;2.65;;;5.10;99.90;;;;;;5052999;28;20056;-85
2023/04/14 01:15:40;;;;;;;11.82;2.90;;;5.10;99.90;;;;;;5035195;28;20396;-85
2023/04/14 01:18:38;;;;;;;14.52;3.33;;;5.10;99.90;;;;;;5052822;28;20102;-85
2023/04/14 01:21:12;;;;;;;11.70;2.75;;;5.00;99.90;;;;;;5032366;28;20076;-85
2023/04/14 01:24:00;;;;;;;10.15;3.15;;;5.10;99.90;;;;;;5038997;28;20053;-85
2023/04/14 01:26:29;;;;;;;7.22;2.55;;;5.10;99.90;;;;;;5038977;28;20462;-85
2023/04/14 01:29:32;;;;;;;10.82;2.88;;;5.10;99.90;;;;;;5038624;28;20045;-84
2023/04/14 01:32:04;;;;;;;11.43;2.65;;;5.10;99.90;;;;;;5056599;28;20076;-85
2023/04/14 01:34:55;;;;;;;8.55;2.47;;;5.00;99.90;;;;;;5038718;28;20048;-84
2023/04/14 01:37:33;;;;;;;12.68;3.10;;;5.00;99.90;;;;;;5056284;28;20087;-85
2023/04/14 01:40:04;;;;;;;9.88;3.00;;;4.90;99.90;;;;;;5056363;28;20481;-85
2023/04/14 01:42:32;;;;;;;11.45;2.95;;;4.80;99.90;;;;;;5056329;28;20048;-85
2023/04/14 01:45:15;;;;;;;14.25;3.03;;;4.80;99.90;;;;;;5038410;28;20460;-85
2023/04/14 01:47:42;;;;;;;7.13;3.07;;;4.70;99.90;;;;;;5056496;28;20072;-84
2023/04/14 01:50:10;;;;;;;7.95;2.85;;;4.70;99.90;;;;;;5038227;28;20049;-84
2023/04/14 01:52:39;;;;;;;11.10;2.90;;;4.70;99.90;;;;;;5037826;28;20067;-84
2023/04/14 01:55:08;;;;;;;10.20;2.72;;;4.70;99.90;;;;;;5038270;28;20049;-84
2023/04/14 01:57:36;;;;;;;11.52;2.97;;;4.60;99.90;;;;;;5038047;28;20045;-85
2023/04/14 02:00:03;;;;;;;9.77;2.70;;;4.60;99.90;;;;;;5056067;28;20049;-85
2023/04/14 02:02:31;;;;;;;7.68;2.47;;;4.60;99.90;;;;;;5038004;28;20049;-86
2023/04/14 02:04:57;;;;;;;7.53;2.40;;;4.50;99.90;;;;;;5055760;28;20434;-85
2023/04/14 02:07:24;;;;;;;14.65;3.22;;;4.50;99.90;;;;;;5038329;28;20404;-85
2023/04/14 02:09:52;;;;;;;7.68;2.92;;;4.40;99.90;;;;;;5055855;28;20041;-84
2023/04/14 02:12:19;;;;;;;9.02;2.92;;;4.30;99.90;;;;;;5038202;28;20077;-85
2023/04/14 02:14:46;;;;;;;7.32;2.83;;;4.30;99.90;;;;;;5037806;28;20051;-85
2023/04/14 02:17:12;;;;;;;9.73;3.10;;;4.30;99.90;;;;;;5055376;28;20439;-85
2023/04/14 02:19:39;;;;;;;10.60;2.97;;;4.30;99.90;;;;;;5037736;28;20053;-85
2023/04/14 02:22:05;;;;;;;9.60;2.92;;;4.20;99.90;;;;;;5055411;28;20119;-85
2023/04/14 02:24:31;;;;;;;10.68;2.92;;;4.30;99.90;;;;;;5055532;28;20134;-85
2023/04/14 02:27:27;;;;;;;8.00;2.97;;;4.20;99.90;;;;;;5055850;28;20115;-85
2023/04/14 02:29:55;;;;;;;8.77;2.40;;;4.20;99.90;;;;;;5055569;28;20175;-85
2023/04/14 02:32:27;;;;;;;9.23;2.83;;;4.30;99.90;;;;;;5054890;28;20029;-85
2023/04/14 02:35:03;;;;;;;17.98;3.53;;;4.30;99.90;;;;;;5037787;28;20075;-85
2023/04/14 02:37:37;;;;;;;9.25;2.53;;;4.30;99.90;;;;;;5037347;28;20052;-85
2023/04/14 02:40:13;;;;;;;12.00;3.83;;;4.30;99.90;;;;;;5037533;28;20397;-85
2023/04/14 02:42:42;;;;;;;9.95;3.33;;;4.40;99.90;;;;;;5035912;28;20043;-85
2023/04/14 02:45:13;;;;;;;7.53;2.35;;;4.40;99.90;;;;;;5052179;28;20484;-85
2023/04/14 02:47:45;;;;;;;11.80;2.95;;;4.50;99.90;;;;;;5037282;28;20124;-85
2023/04/14 02:50:13;;;;;;;12.35;2.85;;;4.50;99.90;;;;;;5037416;28;20045;-85
2023/04/14 02:52:42;;;;;;;12.23;2.42;;;4.60;99.90;;;;;;5054799;28;20512;-85
2023/04/14 02:55:09;;;;;;;10.45;3.50;;;4.60;99.90;;;;;;5055206;28;20374;-85
2023/04/14 02:57:36;;;;;;;12.13;2.85;;;4.60;99.90;;;;;;5055445;28;20069;-85
2023/04/14 03:00:02;;;;;;;11.77;3.35;;;4.70;99.90;;;;;;5054683;28;20055;-85
2023/04/14 03:02:28;;;;;;;8.50;2.90;;;4.60;99.90;;;;;;5054693;28;20507;-85
2023/04/14 03:04:54;;;;;;;7.68;2.35;;;4.50;99.90;;;;;;5055159;28;20052;-85
2023/04/14 03:07:20;;;;;;;11.48;3.10;;;4.50;99.90;;;;;;5054782;28;20040;-84
2023/04/14 03:09:50;;;;;;;6.72;3.10;;;4.50;99.90;;;;;;5037054;28;20053;-84
2023/04/14 03:12:17;;;;;;;10.15;3.05;;;4.50;99.90;;;;;;5036690;28;20124;-85
2023/04/14 03:14:44;;;;;;;7.60;3.40;;;4.40;99.90;;;;;;5036654;28;20071;-84
2023/04/14 03:17:13;;;;;;;10.40;3.53;;;4.40;99.90;;;;;;5054546;28;20068;-84
2023/04/14 03:19:40;;;;;;;13.23;3.08;;;4.40;99.90;;;;;;5054414;28;20148;-85
2023/04/14 03:22:09;;;;;;;11.90;3.03;;;4.40;99.90;;;;;;5054443;28;20045;-85
2023/04/14 03:24:37;;;;;;;10.02;3.15;;;4.40;99.90;;;;;;5054260;28;20412;-84
2023/04/14 03:27:14;;;;;;;6.85;2.50;;;4.30;99.90;;;;;;5054304;28;20048;-84
2023/04/14 03:29:45;;;;;;;9.93;3.22;;;4.20;99.90;;;;;;5036294;28;20037;-84
2023/04/14 03:32:12;;;;;;;10.98;2.63;;;4.20;99.90;;;;;;5054887;28;20072;-84
2023/04/14 03:34:41;;;;;;;7.18;2.58;;;4.10;99.90;;;;;;5054409;28;20051;-84
2023/04/14 03:37:08;;;;;;;9.38;3.45;;;4.10;99.90;;;;;;5054056;28;20083;-85
2023/04/14 03:39:37;;;;;;;7.45;2.65;;;4.10;99.90;;;;;;5054130;28;20111;-85
2023/04/14 03:42:06;;;;;;;11.35;2.95;;;4.00;99.90;;;;;;5053919;28;20045;-84
2023/04/14 03:44:35;;;;;;;9.02;2.85;;;4.00;99.90;;;;;;5053280;28;20047;-85
2023/04/14 03:47:02;;;;;;;9.93;2.95;;;4.00;99.90;;;;;;5036279;28;20127;-85
2023/04/14 03:49:32;;;;;;;8.93;3.40;;;3.90;99.90;;;;;;5036157;28;20045;-85
2023/04/14 03:52:07;;;;;;;8.45;3.00;;;3.90;99.90;;;;;;5053661;28;20135;-85
2023/04/14 03:54:37;;;;;;;8.80;2.85;;;3.90;99.90;;;;;;5054016;28;20044;-85
2023/04/14 03:57:05;;;;;;;8.20;3.05;;;3.80;99.90;;;;;;5035728;28;20041;-85
2023/04/14 03:59:32;;;;;;;6.00;2.92;;;3.80;99.90;;;;;;5053865;28;20049;-85
2023/04/14 04:01:59;;;;;;;11.52;3.20;;;3.70;99.90;;;;;;5053931;28;20492;-84
2023/04/14 04:04:25;;;;;;;9.02;3.05;;;3.70;99.90;;;;;;5053984;28;20049;-85
2023/04/14 04:06:52;;;;;;;8.10;2.72;;;3.70;99.90;;;;;;5035940;28;20045;-85
2023/04/14 04:09:19;;;;;;;8.82;3.63;;;3.60;99.90;;;;;;5053684;28;20041;-85
2023/04/14 04:11:46;;;;;;;8.07;4.18;;;3.60;99.90;;;;;;5035870;28;20080;-85
2023/04/14 04:14:14;;;;;;;14.63;3.88;;;3.60;99.90;;;;;;5053816;28;20051;-84
2023/04/14 04:16:42;;;;;;;10.77;2.75;;;3.60;99.90;;;;;;5053716;28;20049;-84
2023/04/14 04:19:09;;;;;;;7.15;2.50;;;3.60;99.90;;;;;;5053496;28;20048;-84
2023/04/14 04:21:38;;;;;;;7.55;3.28;;;3.50;99.90;;;;;;5053797;28;20130;-84
2023/04/14 04:24:06;;;;;;;9.35;2.35;;;3.60;99.90;;;;;;5035768;28;20095;-83
2023/04/14 04:26:34;;;;;;;10.25;2.95;;;3.60;99.90;;;;;;5053578;28;20045;-85
2023/04/14 04:29:02;;;;;;;11.25;2.92;;;3.50;99.90;;;;;;5053461;28;20045;-84
2023/04/14 04:31:29;;;;;;;11.55;3.22;;;3.50;99.90;;;;;;5053463;28;20055;-84
2023/04/14 04:33:57;;;;;;;5.22;2.50;;;3.60;99.90;;;;;;5053276;28;20132;-84
2023/04/14 04:36:26;;;;;;;9.82;3.53;;;3.50;99.90;;;;;;5053172;28;20048;-84
2023/04/14 04:38:52;;;;;;;9.35;3.40;;;3.60;99.90;;;;;;5034312;28;20048;-85
2023/04/14 04:41:22;;;;;;;8.93;2.97;;;3.70;99.90;;;;;;5035158;28;20033;-84
2023/04/14 04:43:48;;;;;;;6.97;2.92;;;3.70;99.90;;;;;;5053283;28;20037;-84
2023/04/14 04:46:19;;;;;;;9.38;3.03;;;3.60;99.90;;;;;;5053074;28;20044;-84
2023/04/14 04:48:49;;;;;;;9.35;3.53;;;3.70;99.90;;;;;;5052944;28;20434;-84
2023/04/14 04:51:16;;;;;;;8.85;3.08;;;3.80;99.90;;;;;;5035235;28;20057;-84
2023/04/14 04:53:45;;;;;;;11.85;2.90;;;3.80;99.90;;;;;;5053238;28;20045;-84
2023/04/14 04:56:11;;;;;;;6.53;2.75;;;3.90;99.90;;;;;;5056775;28;20055;-84
2023/04/14 04:58:36;;;;;;;8.32;3.00;;;3.90;99.90;;;;;;5039034;28;20037;-84
2023/04/14 05:01:09;;;;;;;8.95;2.83;;;3.90;99.90;;;;;;5039054;28;20045;-84
2023/04/14 05:03:35;;;;;;;8.52;3.08;;;4.00;99.90;;;;;;5039324;28;20135;-84
2023/04/14 05:06:01;;;;;;;12.52;3.42;;;4.10;99.90;;;;;;5039377;28;20053;-85
2023/04/14 05:08:27;;;;;;;7.60;2.55;;;4.00;99.90;;;;;;5038996;28;20048;-84
2023/04/14 05:10:52;;;;;;;8.82;2.88;;;4.10;99.90;;;;;;5039222;28;20051;-84
2023/04/14 05:13:18;;;;;;;10.80;2.75;;;4.10;99.90;;;;;;5056714;28;20087;-84
2023/04/14 05:15:44;;;;;;;9.38;3.20;;;4.10;99.90;;;;;;5056927;28;20045;-85
2023/04/14 05:18:10;;;;;;;9.75;3.08;;;4.00;99.90;;;;;;5038863;28;20048;-85
2023/04/14 05:20:35;;;;;;;9.95;3.03;;;4.00;99.90;;;;;;5056662;28;20048;-84
2023/04/14 05:23:01;;;;;;;10.45;2.88;;;4.10;99.90;;;;;;5056835;28;20040;-83
2023/04/14 05:25:27;;;;;;;9.68;2.83;;;4.10;99.90;;;;;;5038791;28;20048;-83
2023/04/14 05:27:52;;;;;;;11.65;2.97;;;4.10;99.90;;;;;;5056676;28;20043;-84
2023/04/14 05:30:18;;;;;;;7.38;2.95;;;4.10;99.90;;;;;;5038900;28;20401;-84
2023/04/14 05:32:44;;;;;;;6.75;2.42;;;4.10;99.90;;;;;;5056590;28;20049;-84
2023/04/14 05:35:09;;;;;;;12.07;3.20;;;4.20;99.90;;;;;;5056608;28;20041;-84
2023/04/14 05:37:35;;;;;;;6.65;2.80;;;4.30;99.90;;;;;;5056367;28;20126;-84
2023/04/14 05:40:00;;;;;;;9.18;2.28;;;4.30;99.90;;;;;;5056498;28;20048;-84
2023/04/14 05:42:26;;;;;;;6.72;2.90;;;4.30;99.90;;;;;;5038631;28;20124;-84
2023/04/14 05:44:52;;;;;;;8.02;3.42;;;4.30;99.90;;;;;;5056435;28;20370;-84
2023/04/14 05:47:17;;;;;;;12.05;3.03;;;4.40;99.90;;;;;;5056020;28;20052;-84
2023/04/14 05:49:43;;;;;;;9.88;3.35;;;4.50;99.90;;;;;;5038651;28;20484;-84
2023/04/14 05:52:11;;;;;;;7.47;2.60;;;4.50;99.90;;;;;;5055886;28;20053;-84
2023/04/14 05:54:38;;;;;;;10.32;3.03;;;4.60;99.90;;;;;;5056065;28;20049;-84
2023/04/14 05:57:04;;;;;;;11.25;2.90;;;4.80;99.90;;;;;;5055643;28;20447;-84
2023/04/14 05:59:30;;;;;;;8.27;3.08;;;4.90;99.90;;;;;;5038195;28;20079;-84
2023/04/14 06:01:56;;;;;;;8.40;3.17;;;5.00;99.90;;;;;;5056005;28;20060;-84
2023/04/14 06:04:21;;;;;;;9.00;2.60;;;5.10;99.90;;;;;;5056058;28;20400;-85
2023/04/14 06:06:47;;;;;;;11.43;2.58;;;5.20;99.90;;;;;;5037225;28;20041;-85
2023/04/14 06:09:13;;;;;;;8.40;3.28;;;5.30;99.90;;;;;;5055611;28;20377;-83
2023/04/14 06:11:39;;;;;;;8.70;2.70;;;5.30;99.90;;;;;;5055534;28;20049;-84
2023/04/14 06:14:06;;;;;;;4.20;2.47;;;5.40;99.90;;;;;;5037783;28;20037;-85
2023/04/14 06:16:32;;;;;;;9.05;2.70;;;5.50;99.90;;;;;;5055557;28;20134;-85
2023/04/14 06:18:57;;;;;;;9.25;2.70;;;5.70;99.90;;;;;;5055692;28;20049;-85
2023/04/14 06:21:23;;;;;;;6.90;2.50;;;5.80;99.90;;;;;;5037710;28;20091;-86
2023/04/14 06:23:49;;;;;;;7.45;2.65;;;5.90;99.90;;;;;;5055494;28;20090;-84
2023/04/14 06:26:14;;;;;;;6.63;3.00;;;6.10;99.90;;;;;;5037713;28;20037;-84
2023/04/14 06:28:40;;;;;;;7.90;2.65;;;6.20;99.90;;;;;;5055472;28;20050;-84
2023/04/14 06:31:05;;;;;;;7.07;2.75;;;6.30;99.90;;;;;;5055370;28;20045;-84
2023/04/14 06:33:31;;;;;;;9.90;3.50;;;6.40;99.90;;;;;;5037524;28;20143;-84
2023/04/14 06:35:57;;;;;;;8.82;3.28;;;6.50;99.90;;;;;;5055348;28;20041;-84
2023/04/14 06:38:24;;;;;;;8.55;2.80;;;6.60;99.90;;;;;;5037408;28;20511;-84
2023/04/14 06:40:50;;;;;;;9.85;3.53;;;6.80;99.90;;;;;;5055247;28;20112;-84
2023/04/14 06:43:16;;;;;;;8.13;2.72;;;6.90;99.90;;;;;;5055152;28;20448;-85
2023/04/14 06:45:42;;;;;;;6.55;2.75;;;7.00;99.90;;;;;;5037202;28;20401;-83
2023/04/14 06:48:08;;;;;;;9.65;2.97;;;7.10;99.90;;;;;;5055321;28;20049;-83
2023/04/14 06:50:34;;;;;;;7.93;2.95;;;7.20;99.90;;;;;;5055243;28;20040;-83
2023/04/14 06:53:01;;;;;;;6.90;3.03;;;7.30;99.90;;;;;;5037058;28;20095;-84
2023/04/14 06:55:29;;;;;;;10.32;3.03;;;7.50;99.90;;;;;;5054880;28;20041;-84
2023/04/14 06:57:55;;;;;;;7.57;3.42;;;7.60;99.90;;;;;;5055014;28;20048;-84
2023/04/14 07:00:21;;;;;;;10.85;3.85;;;7.70;99.90;;;;;;5054753;28;20399;-89
2023/04/14 07:02:46;;;;;;;6.65;3.42;;;7.80;99.90;;;;;;5019777;28;20112;-83
2023/04/14 07:05:13;;;;;;;7.63;3.33;;;7.90;99.90;;;;;;5023565;28;20173;-84
2023/04/14 07:07:42;;;;;;;8.15;3.33;;;7.90;99.90;;;;;;4997594;28;20125;-85
2023/04/14 07:10:08;;;;;;;8.65;2.97;;;8.00;99.90;;;;;;5014825;28;20038;-83
2023/04/14 07:12:34;;;;;;;5.30;2.83;;;8.00;99.90;;;;;;5014727;28;20790;-84
2023/04/14 07:14:59;;;;;;;8.05;2.92;;;8.20;99.90;;;;;;5014949;28;20109;-84
2023/04/14 07:17:25;;;;;;;10.80;2.80;;;8.30;99.90;;;;;;5014437;28;20089;-84
2023/04/14 07:19:50;;;;;;;8.27;3.30;;;8.50;99.90;;;;;;5014559;28;20038;-84
2023/04/14 07:22:16;;;;;;;6.05;3.30;;;8.60;99.90;;;;;;4996949;28;20046;-84
2023/04/14 07:24:42;;;;;;;9.95;3.35;;;8.70;99.90;;;;;;4997059;28;20052;-83
2023/04/14 07:27:13;;;;;;;7.88;3.00;;;8.90;99.90;;;;;;5014247;28;20548;-84
2023/04/14 07:29:40;;;;;;;10.50;3.05;;;9.00;99.90;;;;;;5014406;28;20080;-84
2023/04/14 07:32:06;;;;;;;9.00;3.10;;;9.00;99.90;;;;;;5014412;28;20042;-84
2023/04/14 07:34:32;;;;;;;8.57;3.17;;;9.10;99.90;;;;;;5014357;28;20037;-84
2023/04/14 07:36:57;;;;;;;10.52;3.45;;;9.30;99.90;;;;;;4996759;28;20049;-84
2023/04/14 07:39:23;;;;;;;7.78;3.40;;;9.50;99.90;;;;;;5014124;28;20049;-84
2023/04/14 07:41:49;;;;;;;9.68;3.72;;;9.60;99.90;;;;;;5014161;28;20068;-81
2023/04/14 07:44:14;;;;;;;9.98;3.38;;;9.70;99.90;;;;;;4996644;28;20049;-83
2023/04/14 07:46:40;;;;;;;8.45;3.15;;;9.80;99.90;;;;;;4996906;28;20053;-86
2023/04/14 07:49:05;;;;;;;6.97;3.30;;;9.90;99.90;;;;;;5014001;28;20088;-87
2023/04/14 07:51:36;;;;;;;9.00;3.25;;;10.10;99.90;;;;;;5013846;28;20052;-85
2023/04/14 07:54:02;;;;;;;9.73;3.10;;;10.20;99.90;;;;;;5013780;28;20382;-84
2023/04/14 07:56:27;;;;;;;9.85;2.63;;;10.20;99.90;;;;;;5013934;28;20052;-86
2023/04/14 07:58:53;;;;;;;9.13;3.08;;;10.30;99.90;;;;;;5014163;28;20049;-85
2023/04/14 08:01:19;;;;;;;9.23;2.90;;;10.40;99.90;;;;;;5013905;28;20436;-86
2023/04/14 08:03:44;;;;;;;10.70;3.70;;;10.50;99.90;;;;;;4996304;28;20068;-85
2023/04/14 08:06:10;;;;;;;9.80;3.20;;;10.60;99.90;;;;;;4996378;28;20053;-85
2023/04/14 08:08:36;;;;;;;10.32;2.97;;;10.80;99.90;;;;;;5013606;28;20045;-86
2023/04/14 08:11:02;;;;;;;11.40;3.25;;;10.90;99.90;;;;;;4996188;28;20489;-87
2023/04/14 08:13:27;;;;;;;12.82;3.53;;;11.00;99.90;;;;;;5013656;28;20038;-85
2023/04/14 08:15:53;;;;;;;8.10;2.70;;;11.00;99.90;;;;;;5013815;28;20045;-84
2023/04/14 08:18:19;;;;;;;11.15;3.28;;;11.10;99.90;;;;;;4995971;28;20054;-86
2023/04/14 08:20:45;;;;;;;10.30;3.30;;;11.20;99.90;;;;;;4996057;28;20081;-84
2023/04/14 08:23:10;;;;;;;9.45;2.75;;;11.30;99.90;;;;;;5013589;28;20477;-86
2023/04/14 08:25:37;;;;;;;7.30;2.88;;;11.40;99.90;;;;;;4996212;28;20049;-85
2023/04/14 08:28:02;;;;;;;8.65;2.63;;;11.40;99.90;;;;;;4995970;28;20053;-85
2023/04/14 08:30:28;;;;;;;8.93;3.10;;;11.60;99.90;;;;;;5012949;28;20034;-87
2023/04/14 08:32:54;;;;;;;8.68;3.75;;;11.70;99.90;;;;;;5013438;28;20041;-85
2023/04/14 08:35:23;;;;;;;9.82;3.03;;;11.80;99.90;;;;;;5013739;28;20474;-86
2023/04/14 08:37:48;;;;;;;14.90;3.08;;;11.90;99.90;;;;;;4995677;28;20053;-86
2023/04/14 08:40:16;;;;;;;7.68;2.50;;;11.90;99.90;;;;;;4995641;28;20061;-86
2023/04/14 08:42:42;;;;;;;7.60;2.90;;;12.10;99.90;;;;;;5013734;28;20057;-87
2023/04/14 08:45:08;;;;;;;12.15;2.95;;;12.00;99.90;;;;;;5013624;28;20486;-87
2023/04/14 08:47:36;;;;;;;13.48;3.53;;;12.00;99.90;;;;;;5013415;28;20387;-83
2023/04/14 08:50:06;;;;;;;11.10;2.80;;;12.30;99.90;;;;;;4995467;28;20045;-83
2023/04/14 08:52:40;;;;;;;7.07;2.88;;;12.50;99.90;;;;;;5013215;28;20058;-82
2023/04/14 08:55:09;;;;;;;10.45;2.42;;;12.80;99.90;;;;;;4996041;28;20104;-80
2023/04/14 08:57:35;;;;;;;8.20;2.70;;;12.90;99.90;;;;;;5013142;28;20050;-83
2023/04/14 09:00:03;;;;;;;11.98;3.08;;;13.00;99.90;;;;;;4995758;28;20092;-83
2023/04/14 09:02:33;;;;;;;7.82;2.90;;;13.20;99.90;;;;;;5013213;28;20125;-88
2023/04/14 09:04:59;;;;;;;7.95;2.83;;;13.30;99.90;;;;;;4995708;28;20042;-91
2023/04/14 09:07:26;;;;;;;10.55;2.78;;;13.30;99.90;;;;;;5013417;28;20045;-83
2023/04/14 09:09:52;;;;;;;11.60;2.50;;;13.40;99.90;;;;;;5013269;28;20125;-83
2023/04/14 09:12:19;;;;;;;9.07;2.50;;;13.20;99.90;;;;;;5013185;28;20137;-84
2023/04/14 09:14:47;;;;;;;8.40;2.60;;;13.30;99.90;;;;;;4995659;28;20412;-87
2023/04/14 09:17:12;;;;;;;8.70;2.40;;;13.40;99.90;;;;;;4995602;28;20444;-85
2023/04/14 09:19:38;;;;;;;8.13;2.28;;;13.30;99.90;;;;;;5013452;28;20535;-85
2023/04/14 09:22:05;;;;;;;9.45;2.45;;;13.30;99.90;;;;;;5013436;28;20038;-85
2023/04/14 09:24:33;;;;;;;7.90;1.90;;;13.50;99.90;;;;;;4995611;28;20089;-85
2023/04/14 09:27:05;;;;;;;5.05;2.15;;;13.40;99.90;;;;;;5013240;28;20083;-85
2023/04/14 09:29:32;;;;;;;5.20;1.58;;;13.60;99.90;;;;;;5013134;28;20042;-85
2023/04/14 09:31:57;;;;;;;6.70;1.90;;;13.60;99.90;;;;;;4995517;28;20456;-84
2023/04/14 09:34:23;;;;;;;8.43;2.33;;;13.50;99.90;;;;;;5013235;28;20482;-84
2023/04/14 09:37:01;;;;;;;4.90;1.60;;;13.60;99.90;;;;;;5013267;28;20045;-84
2023/04/14 09:39:27;;;;;;;7.95;2.10;;;13.50;99.90;;;;;;5013088;28;20532;-84
2023/04/14 09:41:52;;;;;;;6.63;2.22;;;13.50;99.90;;;;;;4996745;28;20050;-84
2023/04/14 09:44:18;;;;;;;5.47;1.50;;;13.50;99.90;;;;;;4998938;28;20088;-84
2023/04/14 09:47:04;;;;;;;8.35;2.30;;;13.70;99.90;;;;;;5016574;28;20096;-84
2023/04/14 09:49:30;;;;;;;7.65;1.85;;;13.80;99.90;;;;;;4998901;28;20444;-84
2023/04/14 09:52:07;;;;;;;5.38;1.73;;;13.40;99.90;;;;;;5016353;28;20057;-84
2023/04/14 09:54:33;;;;;;;5.75;1.73;;;13.50;99.90;;;;;;5016610;28;20042;-84
2023/04/14 09:57:00;;;;;;;7.38;1.80;;;13.60;99.90;;;;;;5016582;28;20065;-84
2023/04/14 09:59:34;;;;;;;8.10;2.28;;;13.60;99.90;;;;;;5016443;28;20054;-84
2023/04/14 10:02:03;;;;;;;8.18;2.17;;;13.80;99.90;;;;;;5016449;28;20045;-84
2023/04/14 10:04:29;;;;;;;9.05;1.88;;;13.90;99.90;;;;;;5016446;28;20064;-84
2023/04/14 10:06:56;;;;;;;6.57;1.70;;;13.70;99.90;;;;;;4995344;28;20042;-84
2023/04/14 10:09:23;;;;;;;6.28;2.03;;;13.70;99.90;;;;;;5014730;28;20408;-84
2023/04/14 10:12:07;;;;;;;9.10;2.15;;;14.10;99.90;;;;;;5016038;28;20536;-84
2023/04/14 10:14:34;;;;;;;8.80;1.80;;;14.20;99.90;;;;;;5016221;28;20057;-85
2023/04/14 10:17:01;;;;;;;8.75;2.15;;;14.20;99.90;;;;;;5015912;28;20050;-84
2023/04/14 10:19:28;;;;;;;9.23;2.05;;;14.40;99.90;;;;;;5015792;28;20505;-84
2023/04/14 10:21:54;;;;;;;7.75;1.80;;;14.60;99.90;;;;;;5016005;28;20041;-84
2023/04/14 10:24:20;;;;;;;6.07;1.90;;;14.50;99.90;;;;;;5015809;28;20058;-83
2023/04/14 10:26:48;;;;;;;8.82;2.10;;;14.40;99.90;;;;;;5016012;28;20046;-83
2023/04/14 10:29:15;;;;;;;9.75;2.30;;;14.40;99.90;;;;;;4998219;28;20485;-84
2023/04/14 10:31:54;;;;;;;9.55;2.30;;;14.60;99.90;;;;;;5015921;28;20133;-84
2023/04/14 10:34:22;;;;;;;7.93;1.95;;;14.30;99.90;;;;;;4998276;28;20128;-85
2023/04/14 10:36:47;;;;;;;7.78;1.98;;;14.40;99.90;;;;;;5015933;28;20057;-84
2023/04/14 10:39:23;;;;;;;9.80;2.20;;;14.30;99.90;;;;;;4998035;28;20038;-84
2023/04/14 10:41:52;;;;;;;8.95;1.98;;;14.40;99.90;;;;;;5015785;28;20049;-84
2023/04/14 10:44:30;;;;;;;5.72;2.00;;;14.30;99.90;;;;;;4998174;28;20074;-84
2023/04/14 10:46:57;;;;;;;6.78;1.90;;;14.40;99.90;;;;;;5015323;28;20453;-84
2023/04/14 10:49:37;;;;;;;6.78;2.10;;;14.50;99.90;;;;;;4998132;28;20084;-84
2023/04/14 10:52:25;;;;;;;5.60;1.45;;;14.50;99.90;;;;;;5015150;28;20573;-83
2023/04/14 10:55:00;;;;;;;5.88;2.25;;;14.70;99.90;;;;;;5015190;28;20056;-84
2023/04/14 10:57:29;;;;;;;8.05;1.98;;;14.90;99.90;;;;;;4997665;28;20042;-84
2023/04/14 10:59:59;;;;;;;8.27;1.80;;;15.10;99.90;;;;;;5015103;28;20394;-84
2023/04/14 11:02:26;;;;;;;5.55;1.42;;;15.10;99.90;;;;;;5015497;28;20069;-84
2023/04/14 11:05:07;;;;;;;6.80;2.00;;;15.00;99.90;;;;;;5015144;28;20485;-84
2023/04/14 11:07:57;;;;;;;5.97;1.60;;;15.40;99.90;;;;;;4997707;28;20490;-84
2023/04/14 11:10:23;;;;;;;6.68;2.10;;;15.30;99.90;;;;;;4998311;28;20058;-84
2023/04/14 11:13:00;;;;;;;6.97;1.70;;;15.20;99.90;;;;;;4997307;28;20409;-84
2023/04/14 11:16:03;;;;;;;6.82;1.80;;;14.90;99.90;;;;;;5015080;28;20049;-84
2023/04/14 11:18:41;;;;;;;7.47;1.58;;;14.80;99.90;;;;;;5015224;28;20433;-84
2023/04/14 11:21:13;;;;;;;7.60;1.63;;;14.30;99.90;;;;;;5015055;28;20045;-84
2023/04/14 11:23:39;;;;;;;9.27;1.93;;;14.20;99.90;;;;;;5014995;28;20045;-84
2023/04/14 11:26:06;;;;;;;9.38;1.63;;;14.00;99.90;;;;;;5014627;28;20046;-84
2023/04/14 11:28:38;;;;;;;7.45;1.70;;;14.00;99.90;;;;;;5014515;28;20064;-83
2023/04/14 11:31:07;;;;;;;7.93;1.70;;;14.00;99.90;;;;;;5014580;28;20485;-84
2023/04/14 11:33:37;;;;;;;7.88;1.73;;;14.00;99.90;;;;;;5014618;28;20100;-84
2023/04/14 11:36:08;;;;;;;8.43;1.70;;;14.10;99.90;;;;;;4997105;28;20053;-84
2023/04/14 11:38:39;;;;;;;10.07;1.90;;;14.00;99.90;;;;;;5014602;28;20064;-84
2023/04/14 11:41:04;;;;;;;5.85;1.40;;;14.00;99.90;;;;;;5014675;28;20042;-84
2023/04/14 11:43:30;;;;;;;8.15;1.67;;;14.20;99.90;;;;;;5014492;28;20044;-84
2023/04/14 11:45:57;;;;;;;7.50;2.03;;;14.40;99.90;;;;;;5014468;28;20132;-84
2023/04/14 11:48:23;;;;;;;5.32;1.40;;;14.60;99.90;;;;;;5014498;28;20073;-84
2023/04/14 11:50:49;;;;;;;6.82;1.67;;;14.70;99.90;;;;;;5014431;28;20453;-83
2023/04/14 11:53:16;;;;;;;7.28;1.60;;;14.90;99.90;;;;;;5013910;28;20062;-83
2023/04/14 11:55:44;;;;;;;10.35;2.20;;;15.00;99.90;;;;;;4996398;28;20046;-83
2023/04/14 11:58:11;;;;;;;6.90;1.83;;;15.30;99.90;;;;;;5013881;28;20128;-83
2023/04/14 12:00:37;;;;;;;7.53;1.55;;;15.50;99.90;;;;;;5014245;28;20041;-84
2023/04/14 12:03:03;;;;;;;9.32;1.73;;;15.70;99.90;;;;;;4996690;28;20057;-83
2023/04/14 12:05:31;;;;;;;9.23;1.98;;;15.70;99.90;;;;;;5013307;28;20045;-83
2023/04/14 12:08:17;;;;;;;8.43;1.77;;;15.60;99.90;;;;;;5013933;28;20042;-83
2023/04/14 12:10:44;;;;;;;6.28;1.40;;;15.70;99.90;;;;;;4995407;28;20054;-83
2023/04/14 12:13:10;;;;;;;5.50;1.50;;;15.50;99.90;;;;;;5014035;28;20046;-84
2023/04/14 12:15:40;;;;;;;5.90;1.63;;;15.30;99.90;;;;;;5013947;28;20096;-83
2023/04/14 12:18:12;;;;;;;6.07;1.60;;;15.10;99.90;;;;;;5013628;28;20099;-83
2023/04/14 12:20:44;;;;;;;6.97;2.22;;;14.80;99.90;;;;;;5013535;28;20045;-84
2023/04/14 12:23:10;;;;;;;6.00;1.20;;;15.00;99.90;;;;;;5013829;28;20045;-84
2023/04/14 12:25:36;;;;;;;8.35;1.70;;;15.00;99.90;;;;;;5013796;28;20050;-84
2023/04/14 12:28:04;;;;;;;6.53;1.70;;;15.20;99.90;;;;;;4996220;28;20046;-83
2023/04/14 12:30:31;;;;;;;7.20;1.30;;;15.40;99.90;;;;;;5013750;28;20042;-83
2023/04/14 12:32:57;;;;;;;8.00;1.60;;;15.40;99.90;;;;;;4996143;28;20056;-83
2023/04/14 12:35:23;;;;;;;7.45;1.50;;;15.30;99.90;;;;;;5013728;28;20124;-84
2023/04/14 12:37:50;;;;;;;8.15;2.20;;;15.10;99.90;;;;;;4995668;28;20486;-83
2023/04/14 12:40:17;;;;;;;6.50;1.50;;;15.40;99.90;;;;;;5013685;28;20049;-83
2023/04/14 12:42:55;;;;;;;9.45;2.17;;;15.50;99.90;;;;;;4996157;28;20045;-83
2023/04/14 12:45:21;;;;;;;7.40;1.88;;;15.50;99.90;;;;;;5025656;28;20045;-83
2023/04/14 12:47:51;;;;;;;7.28;1.80;;;15.40;99.90;;;;;;5053236;28;20492;-83
2023/04/14 12:50:25;;;;;;;8.27;1.65;;;15.20;99.90;;;;;;5052976;28;20507;-83
2023/04/14 12:52:51;;;;;;;11.77;2.65;;;15.20;99.90;;;;;;5034962;28;20500;-84
2023/04/14 12:55:22;;;;;;;8.77;2.50;;;15.20;99.90;;;;;;5052865;28;20091;-84
2023/04/14 12:57:51;;;;;;;6.68;2.17;;;15.20;99.90;;;;;;5052976;28;20048;-83